sensor_id;sensor_type;location;lat;lon;timestamp;P1;durP1;ratioP1;P2;durP2;ratioP2
74833;SDS011;63361;52.384;20.930;2023-04-10T00:02:07;63.83;;;28.73;;
74833;SDS011;63361;52.384;20.930;2023-04-10T00:04:32;58.10;;;27.93;;
74833;SDS011;63361;52.384;20.930;2023-04-10T00:06:57;60.50;;;28.60;;
74833;SDS011;63361;52.384;20.930;2023-04-10T00:09:23;83.13;;;34.63;;
74833;SDS011;63361;52.384;20.930;2023-04-10T00:11:48;64.87;;;29.40;;
74833;SDS011;63361;52.384;20.930;2023-04-10T00:14:13;49.57;;;24.73;;
74833;SDS011;63361;52.384;20.930;2023-04-10T00:16:39;48.50;;;24.10;;
74833;SDS011;63361;52.384;20.930;2023-04-10T00:19:04;46.83;;;23.80;;
74833;SDS011;63361;52.384;20.930;2023-04-10T00:21:29;48.13;;;22.60;;
74833;SDS011;63361;52.384;20.930;2023-04-10T00:23:55;53.80;;;24.27;;
74833;SDS011;63361;52.384;20.930;2023-04-10T00:26:20;48.50;;;23.10;;
74833;SDS011;63361;52.384;20.930;2023-04-10T00:28:47;55.20;;;26.23;;
74833;SDS011;63361;52.384;20.930;2023-04-10T00:31:13;55.40;;;27.73;;
74833;SDS011;63361;52.384;20.930;2023-04-10T00:33:38;50.07;;;24.67;;
74833;SDS011;63361;52.384;20.930;2023-04-10T00:36:03;50.33;;;24.97;;
74833;SDS011;63361;52.384;20.930;2023-04-10T00:38:29;42.87;;;22.27;;
74833;SDS011;63361;52.384;20.930;2023-04-10T00:40:54;49.00;;;23.27;;
74833;SDS011;63361;52.384;20.930;2023-04-10T00:43:20;43.17;;;21.90;;
74833;SDS011;63361;52.384;20.930;2023-04-10T00:45:46;55.33;;;29.03;;
74833;SDS011;63361;52.384;20.930;2023-04-10T00:48:11;55.28;;;27.25;;
74833;SDS011;63361;52.384;20.930;2023-04-10T00:50:36;49.67;;;23.07;;
74833;SDS011;63361;52.384;20.930;2023-04-10T00:53:02;48.17;;;23.17;;
74833;SDS011;63361;52.384;20.930;2023-04-10T00:55:27;41.60;;;22.90;;
74833;SDS011;63361;52.384;20.930;2023-04-10T00:57:53;42.30;;;21.80;;
74833;SDS011;63361;52.384;20.930;2023-04-10T01:00:20;44.03;;;23.00;;
74833;SDS011;63361;52.384;20.930;2023-04-10T01:02:45;45.67;;;22.23;;
74833;SDS011;63361;52.384;20.930;2023-04-10T01:05:11;52.77;;;23.10;;
74833;SDS011;63361;52.384;20.930;2023-04-10T01:07:52;45.07;;;22.80;;
74833;SDS011;63361;52.384;20.930;2023-04-10T01:10:24;71.03;;;32.28;;
74833;SDS011;63361;52.384;20.930;2023-04-10T01:13:06;63.83;;;31.00;;
74833;SDS011;63361;52.384;20.930;2023-04-10T01:15:45;66.00;;;32.75;;
74833;SDS011;63361;52.384;20.930;2023-04-10T01:18:30;63.45;;;30.38;;
74833;SDS011;63361;52.384;20.930;2023-04-10T01:21:16;49.03;;;22.27;;
74833;SDS011;63361;52.384;20.930;2023-04-10T01:29:59;45.50;;;21.60;;
74833;SDS011;63361;52.384;20.930;2023-04-10T01:32:26;52.08;;;22.13;;
74833;SDS011;63361;52.384;20.930;2023-04-10T01:34:55;51.15;;;23.75;;
74833;SDS011;63361;52.384;20.930;2023-04-10T01:37:28;44.55;;;21.48;;
74833;SDS011;63361;52.384;20.930;2023-04-10T01:39:59;53.35;;;24.85;;
74833;SDS011;63361;52.384;20.930;2023-04-10T01:42:27;77.33;;;35.30;;
74833;SDS011;63361;52.384;20.930;2023-04-10T01:44:55;64.28;;;30.63;;
74833;SDS011;63361;52.384;20.930;2023-04-10T01:47:22;61.78;;;28.08;;
74833;SDS011;63361;52.384;20.930;2023-04-10T01:49:49;62.80;;;29.75;;
74833;SDS011;63361;52.384;20.930;2023-04-10T01:52:16;56.42;;;26.83;;
74833;SDS011;63361;52.384;20.930;2023-04-10T01:54:42;51.07;;;25.13;;
74833;SDS011;63361;52.384;20.930;2023-04-10T01:57:09;50.58;;;25.27;;
74833;SDS011;63361;52.384;20.930;2023-04-10T01:59:37;59.75;;;27.52;;
74833;SDS011;63361;52.384;20.930;2023-04-10T02:02:03;62.73;;;26.73;;
74833;SDS011;63361;52.384;20.930;2023-04-10T02:04:31;74.43;;;30.83;;
74833;SDS011;63361;52.384;20.930;2023-04-10T02:07:08;63.72;;;29.70;;
74833;SDS011;63361;52.384;20.930;2023-04-10T02:09:47;60.75;;;28.15;;
74833;SDS011;63361;52.384;20.930;2023-04-10T02:12:29;57.90;;;27.07;;
74833;SDS011;63361;52.384;20.930;2023-04-10T02:15:00;58.42;;;27.00;;
74833;SDS011;63361;52.384;20.930;2023-04-10T02:17:29;55.67;;;25.60;;
74833;SDS011;63361;52.384;20.930;2023-04-10T02:19:56;65.97;;;28.05;;
74833;SDS011;63361;52.384;20.930;2023-04-10T02:22:23;54.55;;;25.50;;
74833;SDS011;63361;52.384;20.930;2023-04-10T02:24:50;47.47;;;24.27;;
74833;SDS011;63361;52.384;20.930;2023-04-10T02:27:25;51.42;;;24.20;;
74833;SDS011;63361;52.384;20.930;2023-04-10T02:29:58;53.15;;;25.33;;
74833;SDS011;63361;52.384;20.930;2023-04-10T02:32:24;54.63;;;25.23;;
74833;SDS011;63361;52.384;20.930;2023-04-10T02:34:49;49.97;;;23.83;;
74833;SDS011;63361;52.384;20.930;2023-04-10T02:37:15;49.37;;;24.53;;
74833;SDS011;63361;52.384;20.930;2023-04-10T02:39:40;43.17;;;23.27;;
74833;SDS011;63361;52.384;20.930;2023-04-10T02:42:06;43.00;;;22.63;;
74833;SDS011;63361;52.384;20.930;2023-04-10T02:44:31;50.07;;;24.17;;
74833;SDS011;63361;52.384;20.930;2023-04-10T02:46:57;47.60;;;22.93;;
74833;SDS011;63361;52.384;20.930;2023-04-10T02:49:22;55.17;;;25.27;;
74833;SDS011;63361;52.384;20.930;2023-04-10T02:51:47;57.30;;;26.90;;
74833;SDS011;63361;52.384;20.930;2023-04-10T02:54:13;57.10;;;26.67;;
74833;SDS011;63361;52.384;20.930;2023-04-10T02:56:38;47.20;;;22.33;;
74833;SDS011;63361;52.384;20.930;2023-04-10T02:59:04;49.47;;;23.70;;
74833;SDS011;63361;52.384;20.930;2023-04-10T03:01:29;55.55;;;25.15;;
74833;SDS011;63361;52.384;20.930;2023-04-10T03:03:56;58.17;;;24.25;;
74833;SDS011;63361;52.384;20.930;2023-04-10T03:06:21;88.53;;;25.67;;
74833;SDS011;63361;52.384;20.930;2023-04-10T03:08:50;47.57;;;22.73;;
74833;SDS011;63361;52.384;20.930;2023-04-10T03:11:15;35.03;;;19.20;;
74833;SDS011;63361;52.384;20.930;2023-04-10T03:13:40;35.47;;;19.33;;
74833;SDS011;63361;52.384;20.930;2023-04-10T03:16:06;50.20;;;25.23;;
74833;SDS011;63361;52.384;20.930;2023-04-10T03:18:31;50.13;;;24.33;;
74833;SDS011;63361;52.384;20.930;2023-04-10T03:20:58;55.22;;;24.90;;
74833;SDS011;63361;52.384;20.930;2023-04-10T03:23:23;48.22;;;24.15;;
74833;SDS011;63361;52.384;20.930;2023-04-10T03:25:49;48.80;;;23.20;;
74833;SDS011;63361;52.384;20.930;2023-04-10T03:28:19;46.33;;;22.35;;
74833;SDS011;63361;52.384;20.930;2023-04-10T03:30:45;43.60;;;22.63;;
74833;SDS011;63361;52.384;20.930;2023-04-10T03:33:10;44.17;;;22.25;;
74833;SDS011;63361;52.384;20.930;2023-04-10T03:35:35;52.80;;;24.20;;
74833;SDS011;63361;52.384;20.930;2023-04-10T03:38:01;48.93;;;23.80;;
74833;SDS011;63361;52.384;20.930;2023-04-10T03:40:26;56.17;;;25.10;;
74833;SDS011;63361;52.384;20.930;2023-04-10T03:42:51;59.87;;;27.00;;
74833;SDS011;63361;52.384;20.930;2023-04-10T03:45:17;59.67;;;25.27;;
74833;SDS011;63361;52.384;20.930;2023-04-10T03:47:42;57.43;;;25.67;;
74833;SDS011;63361;52.384;20.930;2023-04-10T03:50:08;56.23;;;25.70;;
74833;SDS011;63361;52.384;20.930;2023-04-10T03:52:34;51.17;;;24.35;;
74833;SDS011;63361;52.384;20.930;2023-04-10T03:55:00;63.73;;;26.40;;
74833;SDS011;63361;52.384;20.930;2023-04-10T03:57:25;54.83;;;26.97;;
74833;SDS011;63361;52.384;20.930;2023-04-10T03:59:50;71.43;;;31.80;;
74833;SDS011;63361;52.384;20.930;2023-04-10T04:02:16;72.63;;;33.07;;
74833;SDS011;63361;52.384;20.930;2023-04-10T04:04:41;71.63;;;31.47;;
74833;SDS011;63361;52.384;20.930;2023-04-10T04:07:06;57.37;;;27.73;;
74833;SDS011;63361;52.384;20.930;2023-04-10T04:09:32;46.05;;;23.38;;
74833;SDS011;63361;52.384;20.930;2023-04-10T04:11:58;51.80;;;25.30;;
74833;SDS011;63361;52.384;20.930;2023-04-10T04:14:23;63.67;;;29.03;;
74833;SDS011;63361;52.384;20.930;2023-04-10T04:16:49;73.33;;;29.73;;
74833;SDS011;63361;52.384;20.930;2023-04-10T04:19:14;79.07;;;32.25;;
74833;SDS011;63361;52.384;20.930;2023-04-10T04:21:40;89.43;;;36.93;;
74833;SDS011;63361;52.384;20.930;2023-04-10T04:24:05;90.32;;;37.10;;
74833;SDS011;63361;52.384;20.930;2023-04-10T04:26:31;63.77;;;28.93;;
74833;SDS011;63361;52.384;20.930;2023-04-10T04:28:57;53.70;;;27.15;;
74833;SDS011;63361;52.384;20.930;2023-04-10T04:31:22;47.23;;;24.37;;
74833;SDS011;63361;52.384;20.930;2023-04-10T04:33:49;49.60;;;25.67;;
74833;SDS011;63361;52.384;20.930;2023-04-10T04:36:14;52.03;;;24.83;;
74833;SDS011;63361;52.384;20.930;2023-04-10T04:38:40;50.60;;;24.00;;
74833;SDS011;63361;52.384;20.930;2023-04-10T04:41:06;41.67;;;22.13;;
74833;SDS011;63361;52.384;20.930;2023-04-10T04:43:31;42.07;;;21.03;;
74833;SDS011;63361;52.384;20.930;2023-04-10T04:45:56;43.17;;;19.63;;
74833;SDS011;63361;52.384;20.930;2023-04-10T04:48:22;50.40;;;23.03;;
74833;SDS011;63361;52.384;20.930;2023-04-10T04:50:47;69.27;;;31.07;;
74833;SDS011;63361;52.384;20.930;2023-04-10T04:53:12;49.93;;;23.67;;
74833;SDS011;63361;52.384;20.930;2023-04-10T04:55:38;59.70;;;30.23;;
74833;SDS011;63361;52.384;20.930;2023-04-10T04:58:03;52.20;;;27.77;;
74833;SDS011;63361;52.384;20.930;2023-04-10T05:00:29;50.88;;;24.80;;
74833;SDS011;63361;52.384;20.930;2023-04-10T05:02:54;48.63;;;23.23;;
74833;SDS011;63361;52.384;20.930;2023-04-10T05:05:19;42.80;;;22.37;;
74833;SDS011;63361;52.384;20.930;2023-04-10T05:07:45;39.73;;;19.50;;
74833;SDS011;63361;52.384;20.930;2023-04-10T05:10:10;33.07;;;18.33;;
74833;SDS011;63361;52.384;20.930;2023-04-10T05:12:35;29.73;;;14.48;;
74833;SDS011;63361;52.384;20.930;2023-04-10T05:15:01;22.10;;;12.77;;
74833;SDS011;63361;52.384;20.930;2023-04-10T05:17:27;19.07;;;10.83;;
74833;SDS011;63361;52.384;20.930;2023-04-10T05:19:52;17.50;;;10.50;;
74833;SDS011;63361;52.384;20.930;2023-04-10T05:22:17;17.73;;;10.27;;
74833;SDS011;63361;52.384;20.930;2023-04-10T05:24:43;17.80;;;10.50;;
74833;SDS011;63361;52.384;20.930;2023-04-10T05:27:08;19.23;;;11.77;;
74833;SDS011;63361;52.384;20.930;2023-04-10T05:29:33;18.63;;;11.77;;
74833;SDS011;63361;52.384;20.930;2023-04-10T05:31:59;20.45;;;11.65;;
74833;SDS011;63361;52.384;20.930;2023-04-10T05:34:24;18.40;;;11.37;;
74833;SDS011;63361;52.384;20.930;2023-04-10T05:36:50;17.60;;;10.70;;
74833;SDS011;63361;52.384;20.930;2023-04-10T05:39:15;21.53;;;11.17;;
74833;SDS011;63361;52.384;20.930;2023-04-10T05:41:41;19.02;;;10.40;;
74833;SDS011;63361;52.384;20.930;2023-04-10T05:44:06;20.43;;;10.60;;
74833;SDS011;63361;52.384;20.930;2023-04-10T05:46:32;19.17;;;11.13;;
74833;SDS011;63361;52.384;20.930;2023-04-10T05:48:58;18.20;;;10.63;;
74833;SDS011;63361;52.384;20.930;2023-04-10T05:51:24;17.08;;;11.07;;
74833;SDS011;63361;52.384;20.930;2023-04-10T05:53:50;18.42;;;10.80;;
74833;SDS011;63361;52.384;20.930;2023-04-10T05:56:15;23.53;;;14.77;;
74833;SDS011;63361;52.384;20.930;2023-04-10T05:58:41;49.00;;;27.17;;
74833;SDS011;63361;52.384;20.930;2023-04-10T06:01:06;21.17;;;13.43;;
74833;SDS011;63361;52.384;20.930;2023-04-10T06:03:31;19.58;;;11.77;;
74833;SDS011;63361;52.384;20.930;2023-04-10T06:05:58;20.10;;;12.10;;
74833;SDS011;63361;52.384;20.930;2023-04-10T06:08:24;21.40;;;13.07;;
74833;SDS011;63361;52.384;20.930;2023-04-10T06:10:49;20.05;;;13.13;;
74833;SDS011;63361;52.384;20.930;2023-04-10T06:13:15;18.90;;;12.10;;
74833;SDS011;63361;52.384;20.930;2023-04-10T06:15:40;16.50;;;10.27;;
74833;SDS011;63361;52.384;20.930;2023-04-10T06:18:06;14.80;;;10.37;;
74833;SDS011;63361;52.384;20.930;2023-04-10T06:20:31;16.60;;;9.77;;
74833;SDS011;63361;52.384;20.930;2023-04-10T06:22:57;14.37;;;9.63;;
74833;SDS011;63361;52.384;20.930;2023-04-10T06:25:23;14.48;;;8.63;;
74833;SDS011;63361;52.384;20.930;2023-04-10T06:27:48;14.83;;;10.00;;
74833;SDS011;63361;52.384;20.930;2023-04-10T06:30:14;13.00;;;8.48;;
74833;SDS011;63361;52.384;20.930;2023-04-10T06:32:40;19.43;;;11.70;;
74833;SDS011;63361;52.384;20.930;2023-04-10T06:35:05;13.88;;;8.55;;
74833;SDS011;63361;52.384;20.930;2023-04-10T06:37:31;11.83;;;7.20;;
74833;SDS011;63361;52.384;20.930;2023-04-10T06:40:06;12.85;;;8.27;;
74833;SDS011;63361;52.384;20.930;2023-04-10T06:42:34;13.43;;;8.80;;
74833;SDS011;63361;52.384;20.930;2023-04-10T06:45:00;12.35;;;8.00;;
74833;SDS011;63361;52.384;20.930;2023-04-10T06:47:25;11.45;;;7.40;;
74833;SDS011;63361;52.384;20.930;2023-04-10T06:49:51;11.40;;;7.20;;
74833;SDS011;63361;52.384;20.930;2023-04-10T06:52:16;10.67;;;6.63;;
74833;SDS011;63361;52.384;20.930;2023-04-10T06:54:42;10.77;;;7.22;;
74833;SDS011;63361;52.384;20.930;2023-04-10T06:57:08;10.67;;;6.43;;
74833;SDS011;63361;52.384;20.930;2023-04-10T06:59:33;12.23;;;6.40;;
74833;SDS011;63361;52.384;20.930;2023-04-10T07:01:59;10.00;;;7.28;;
74833;SDS011;63361;52.384;20.930;2023-04-10T07:04:26;11.18;;;6.90;;
74833;SDS011;63361;52.384;20.930;2023-04-10T07:06:52;11.40;;;7.17;;
74833;SDS011;63361;52.384;20.930;2023-04-10T07:09:17;11.20;;;7.63;;
74833;SDS011;63361;52.384;20.930;2023-04-10T07:11:42;11.02;;;7.50;;
74833;SDS011;63361;52.384;20.930;2023-04-10T07:14:08;15.40;;;8.03;;
74833;SDS011;63361;52.384;20.930;2023-04-10T07:16:33;10.83;;;7.40;;
74833;SDS011;63361;52.384;20.930;2023-04-10T07:18:58;16.70;;;9.53;;
74833;SDS011;63361;52.384;20.930;2023-04-10T07:21:24;10.23;;;6.97;;
74833;SDS011;63361;52.384;20.930;2023-04-10T07:23:51;10.23;;;6.97;;
74833;SDS011;63361;52.384;20.930;2023-04-10T07:26:16;9.60;;;6.23;;
74833;SDS011;63361;52.384;20.930;2023-04-10T07:28:41;9.70;;;5.80;;
74833;SDS011;63361;52.384;20.930;2023-04-10T07:31:07;10.53;;;6.70;;
74833;SDS011;63361;52.384;20.930;2023-04-10T07:33:32;10.13;;;6.27;;
74833;SDS011;63361;52.384;20.930;2023-04-10T07:35:57;8.47;;;5.63;;
74833;SDS011;63361;52.384;20.930;2023-04-10T07:38:23;9.33;;;5.50;;
74833;SDS011;63361;52.384;20.930;2023-04-10T07:40:49;7.45;;;5.00;;
74833;SDS011;63361;52.384;20.930;2023-04-10T07:43:20;10.77;;;5.63;;
74833;SDS011;63361;52.384;20.930;2023-04-10T07:45:45;7.80;;;5.73;;
74833;SDS011;63361;52.384;20.930;2023-04-10T07:48:11;9.95;;;5.63;;
74833;SDS011;63361;52.384;20.930;2023-04-10T07:50:36;11.33;;;5.90;;
74833;SDS011;63361;52.384;20.930;2023-04-10T07:53:02;13.33;;;7.23;;
74833;SDS011;63361;52.384;20.930;2023-04-10T07:55:31;11.40;;;6.50;;
74833;SDS011;63361;52.384;20.930;2023-04-10T07:58:01;11.05;;;6.68;;
74833;SDS011;63361;52.384;20.930;2023-04-10T08:00:26;11.03;;;6.73;;
74833;SDS011;63361;52.384;20.930;2023-04-10T08:02:51;10.77;;;6.30;;
74833;SDS011;63361;52.384;20.930;2023-04-10T08:05:16;10.40;;;6.63;;
74833;SDS011;63361;52.384;20.930;2023-04-10T08:07:42;10.63;;;6.63;;
74833;SDS011;63361;52.384;20.930;2023-04-10T08:10:07;9.93;;;5.90;;
74833;SDS011;63361;52.384;20.930;2023-04-10T08:12:33;10.35;;;5.90;;
74833;SDS011;63361;52.384;20.930;2023-04-10T08:14:58;9.53;;;5.73;;
74833;SDS011;63361;52.384;20.930;2023-04-10T08:17:24;11.17;;;6.13;;
74833;SDS011;63361;52.384;20.930;2023-04-10T08:19:49;10.13;;;5.70;;
74833;SDS011;63361;52.384;20.930;2023-04-10T08:22:14;9.47;;;6.23;;
74833;SDS011;63361;52.384;20.930;2023-04-10T08:24:40;9.18;;;5.60;;
74833;SDS011;63361;52.384;20.930;2023-04-10T08:27:05;9.97;;;5.70;;
74833;SDS011;63361;52.384;20.930;2023-04-10T08:29:30;12.67;;;5.40;;
74833;SDS011;63361;52.384;20.930;2023-04-10T08:31:56;8.97;;;5.23;;
74833;SDS011;63361;52.384;20.930;2023-04-10T08:34:24;9.10;;;4.85;;
74833;SDS011;63361;52.384;20.930;2023-04-10T08:36:49;8.30;;;5.40;;
74833;SDS011;63361;52.384;20.930;2023-04-10T08:39:15;8.90;;;5.17;;
74833;SDS011;63361;52.384;20.930;2023-04-10T08:41:40;8.13;;;4.60;;
74833;SDS011;63361;52.384;20.930;2023-04-10T08:44:06;8.48;;;4.95;;
74833;SDS011;63361;52.384;20.930;2023-04-10T08:46:32;9.80;;;4.40;;
74833;SDS011;63361;52.384;20.930;2023-04-10T08:49:01;10.73;;;4.78;;
74833;SDS011;63361;52.384;20.930;2023-04-10T08:51:35;6.97;;;4.35;;
74833;SDS011;63361;52.384;20.930;2023-04-10T08:54:06;9.17;;;4.90;;
74833;SDS011;63361;52.384;20.930;2023-04-10T08:56:34;8.10;;;4.80;;
74833;SDS011;63361;52.384;20.930;2023-04-10T08:59:01;8.68;;;4.93;;
74833;SDS011;63361;52.384;20.930;2023-04-10T09:01:27;8.02;;;4.38;;
74833;SDS011;63361;52.384;20.930;2023-04-10T09:03:53;8.03;;;4.17;;
74833;SDS011;63361;52.384;20.930;2023-04-10T09:06:19;8.55;;;4.95;;
74833;SDS011;63361;52.384;20.930;2023-04-10T09:08:44;10.93;;;5.33;;
74833;SDS011;63361;52.384;20.930;2023-04-10T09:11:09;6.33;;;3.77;;
74833;SDS011;63361;52.384;20.930;2023-04-10T09:16:01;8.00;;;3.75;;
74833;SDS011;63361;52.384;20.930;2023-04-10T09:18:43;7.17;;;4.20;;
74833;SDS011;63361;52.384;20.930;2023-04-10T09:21:14;8.85;;;4.45;;
74833;SDS011;63361;52.384;20.930;2023-04-10T09:23:42;9.52;;;5.47;;
74833;SDS011;63361;52.384;20.930;2023-04-10T09:29:06;8.13;;;4.38;;
74833;SDS011;63361;52.384;20.930;2023-04-10T09:31:32;7.63;;;4.10;;
74833;SDS011;63361;52.384;20.930;2023-04-10T09:34:09;9.05;;;4.55;;
74833;SDS011;63361;52.384;20.930;2023-04-10T09:36:38;9.50;;;4.45;;
74833;SDS011;63361;52.384;20.930;2023-04-10T09:39:05;9.10;;;4.57;;
74833;SDS011;63361;52.384;20.930;2023-04-10T09:41:31;9.77;;;4.20;;
74833;SDS011;63361;52.384;20.930;2023-04-10T09:44:10;6.03;;;3.63;;
74833;SDS011;63361;52.384;20.930;2023-04-10T09:46:35;7.40;;;3.65;;
74833;SDS011;63361;52.384;20.930;2023-04-10T09:49:01;6.07;;;3.50;;
74833;SDS011;63361;52.384;20.930;2023-04-10T09:51:33;8.05;;;4.15;;
74833;SDS011;63361;52.384;20.930;2023-04-10T09:53:59;7.72;;;4.10;;
74833;SDS011;63361;52.384;20.930;2023-04-10T09:56:26;8.35;;;4.00;;
74833;SDS011;63361;52.384;20.930;2023-04-10T09:58:56;6.68;;;3.40;;
74833;SDS011;63361;52.384;20.930;2023-04-10T10:01:25;7.60;;;4.47;;
74833;SDS011;63361;52.384;20.930;2023-04-10T10:03:52;7.40;;;4.00;;
74833;SDS011;63361;52.384;20.930;2023-04-10T10:06:19;7.63;;;3.92;;
74833;SDS011;63361;52.384;20.930;2023-04-10T10:08:45;7.30;;;3.55;;
74833;SDS011;63361;52.384;20.930;2023-04-10T10:11:12;7.85;;;4.43;;
74833;SDS011;63361;52.384;20.930;2023-04-10T10:13:49;9.40;;;7.13;;
74833;SDS011;63361;52.384;20.930;2023-04-10T10:16:19;6.00;;;4.30;;
74833;SDS011;63361;52.384;20.930;2023-04-10T10:21:23;6.43;;;3.55;;
74833;SDS011;63361;52.384;20.930;2023-04-10T10:23:51;7.93;;;4.10;;
74833;SDS011;63361;52.384;20.930;2023-04-10T10:26:21;6.33;;;3.80;;
74833;SDS011;63361;52.384;20.930;2023-04-10T10:28:48;7.57;;;4.05;;
74833;SDS011;63361;52.384;20.930;2023-04-10T10:31:16;5.95;;;3.50;;
74833;SDS011;63361;52.384;20.930;2023-04-10T10:33:43;7.68;;;3.30;;
74833;SDS011;63361;52.384;20.930;2023-04-10T10:36:11;6.78;;;4.32;;
74833;SDS011;63361;52.384;20.930;2023-04-10T10:38:38;6.30;;;4.00;;
74833;SDS011;63361;52.384;20.930;2023-04-10T10:41:12;6.40;;;3.78;;
74833;SDS011;63361;52.384;20.930;2023-04-10T10:49:11;7.13;;;4.13;;
74833;SDS011;63361;52.384;20.930;2023-04-10T10:51:44;8.13;;;3.83;;
74833;SDS011;63361;52.384;20.930;2023-04-10T10:54:29;6.60;;;3.40;;
74833;SDS011;63361;52.384;20.930;2023-04-10T10:56:59;7.70;;;3.83;;
74833;SDS011;63361;52.384;20.930;2023-04-10T11:02:13;8.27;;;3.63;;
74833;SDS011;63361;52.384;20.930;2023-04-10T11:04:46;8.13;;;4.57;;
74833;SDS011;63361;52.384;20.930;2023-04-10T11:07:13;6.60;;;3.40;;
74833;SDS011;63361;52.384;20.930;2023-04-10T11:09:43;6.70;;;4.00;;
74833;SDS011;63361;52.384;20.930;2023-04-10T11:12:09;8.00;;;3.92;;
74833;SDS011;63361;52.384;20.930;2023-04-10T11:14:35;6.77;;;3.40;;
74833;SDS011;63361;52.384;20.930;2023-04-10T11:17:02;5.72;;;2.97;;
74833;SDS011;63361;52.384;20.930;2023-04-10T11:19:27;4.63;;;2.87;;
74833;SDS011;63361;52.384;20.930;2023-04-10T11:22:02;7.07;;;3.37;;
74833;SDS011;63361;52.384;20.930;2023-04-10T11:24:29;6.30;;;3.28;;
74833;SDS011;63361;52.384;20.930;2023-04-10T11:27:36;7.18;;;3.25;;
74833;SDS011;63361;52.384;20.930;2023-04-10T11:30:29;5.88;;;3.22;;
74833;SDS011;63361;52.384;20.930;2023-04-10T11:32:56;6.50;;;3.10;;
74833;SDS011;63361;52.384;20.930;2023-04-10T11:35:24;6.73;;;2.80;;
74833;SDS011;63361;52.384;20.930;2023-04-10T11:37:49;7.80;;;3.05;;
74833;SDS011;63361;52.384;20.930;2023-04-10T11:40:15;6.53;;;3.57;;
74833;SDS011;63361;52.384;20.930;2023-04-10T11:42:41;7.25;;;3.42;;
74833;SDS011;63361;52.384;20.930;2023-04-10T11:45:26;6.20;;;3.10;;
74833;SDS011;63361;52.384;20.930;2023-04-10T11:47:52;6.07;;;2.65;;
74833;SDS011;63361;52.384;20.930;2023-04-10T11:50:18;5.75;;;2.90;;
74833;SDS011;63361;52.384;20.930;2023-04-10T11:52:45;6.67;;;2.07;;
74833;SDS011;63361;52.384;20.930;2023-04-10T11:55:13;6.78;;;2.35;;
74833;SDS011;63361;52.384;20.930;2023-04-10T11:57:40;7.15;;;2.72;;
74833;SDS011;63361;52.384;20.930;2023-04-10T12:00:06;5.17;;;2.60;;
74833;SDS011;63361;52.384;20.930;2023-04-10T12:02:32;5.90;;;2.38;;
74833;SDS011;63361;52.384;20.930;2023-04-10T12:04:58;4.53;;;2.40;;
74833;SDS011;63361;52.384;20.930;2023-04-10T12:07:23;4.78;;;2.20;;
74833;SDS011;63361;52.384;20.930;2023-04-10T12:09:56;5.07;;;2.50;;
74833;SDS011;63361;52.384;20.930;2023-04-10T12:12:33;4.57;;;2.20;;
74833;SDS011;63361;52.384;20.930;2023-04-10T12:15:01;6.28;;;2.40;;
74833;SDS011;63361;52.384;20.930;2023-04-10T12:17:28;6.45;;;2.40;;
74833;SDS011;63361;52.384;20.930;2023-04-10T12:19:54;7.07;;;2.55;;
74833;SDS011;63361;52.384;20.930;2023-04-10T12:22:19;6.30;;;2.20;;
74833;SDS011;63361;52.384;20.930;2023-04-10T12:24:48;5.93;;;2.58;;
74833;SDS011;63361;52.384;20.930;2023-04-10T12:27:18;6.72;;;3.38;;
74833;SDS011;63361;52.384;20.930;2023-04-10T12:29:48;5.70;;;3.20;;
74833;SDS011;63361;52.384;20.930;2023-04-10T12:32:15;6.00;;;2.95;;
74833;SDS011;63361;52.384;20.930;2023-04-10T12:34:40;5.90;;;3.30;;
74833;SDS011;63361;52.384;20.930;2023-04-10T12:37:06;8.40;;;2.90;;
74833;SDS011;63361;52.384;20.930;2023-04-10T12:39:33;5.30;;;3.00;;
74833;SDS011;63361;52.384;20.930;2023-04-10T12:42:19;8.18;;;2.45;;
74833;SDS011;63361;52.384;20.930;2023-04-10T12:47:19;5.53;;;2.53;;
74833;SDS011;63361;52.384;20.930;2023-04-10T12:52:41;8.80;;;2.63;;
74833;SDS011;63361;52.384;20.930;2023-04-10T12:55:14;5.93;;;2.60;;
74833;SDS011;63361;52.384;20.930;2023-04-10T12:57:42;7.30;;;3.03;;
74833;SDS011;63361;52.384;20.930;2023-04-10T13:00:09;5.38;;;2.78;;
74833;SDS011;63361;52.384;20.930;2023-04-10T13:02:36;5.28;;;2.63;;
74833;SDS011;63361;52.384;20.930;2023-04-10T13:05:03;8.77;;;2.80;;
74833;SDS011;63361;52.384;20.930;2023-04-10T13:07:29;6.05;;;2.90;;
74833;SDS011;63361;52.384;20.930;2023-04-10T13:09:54;6.17;;;2.80;;
74833;SDS011;63361;52.384;20.930;2023-04-10T13:12:20;7.00;;;3.00;;
74833;SDS011;63361;52.384;20.930;2023-04-10T13:14:46;5.07;;;2.78;;
74833;SDS011;63361;52.384;20.930;2023-04-10T13:17:11;6.73;;;2.93;;
74833;SDS011;63361;52.384;20.930;2023-04-10T13:19:37;7.73;;;2.77;;
74833;SDS011;63361;52.384;20.930;2023-04-10T13:22:02;5.27;;;2.60;;
74833;SDS011;63361;52.384;20.930;2023-04-10T13:24:28;6.45;;;2.83;;
74833;SDS011;63361;52.384;20.930;2023-04-10T13:26:54;4.75;;;2.45;;
74833;SDS011;63361;52.384;20.930;2023-04-10T13:29:21;6.53;;;2.80;;
74833;SDS011;63361;52.384;20.930;2023-04-10T13:31:46;6.73;;;2.87;;
74833;SDS011;63361;52.384;20.930;2023-04-10T13:34:11;6.23;;;2.70;;
74833;SDS011;63361;52.384;20.930;2023-04-10T13:36:37;6.57;;;2.60;;
74833;SDS011;63361;52.384;20.930;2023-04-10T13:39:02;12.87;;;2.60;;
74833;SDS011;63361;52.384;20.930;2023-04-10T13:41:27;10.60;;;2.87;;
74833;SDS011;63361;52.384;20.930;2023-04-10T13:43:53;6.65;;;3.00;;
74833;SDS011;63361;52.384;20.930;2023-04-10T13:46:18;6.33;;;2.93;;
74833;SDS011;63361;52.384;20.930;2023-04-10T13:48:43;6.40;;;2.77;;
74833;SDS011;63361;52.384;20.930;2023-04-10T13:51:09;7.90;;;2.50;;
74833;SDS011;63361;52.384;20.930;2023-04-10T13:53:34;4.90;;;2.30;;
74833;SDS011;63361;52.384;20.930;2023-04-10T13:56:00;5.50;;;2.30;;
74833;SDS011;63361;52.384;20.930;2023-04-10T13:58:25;6.60;;;2.80;;
74833;SDS011;63361;52.384;20.930;2023-04-10T14:00:52;4.55;;;2.80;;
74833;SDS011;63361;52.384;20.930;2023-04-10T14:03:18;5.57;;;2.47;;
74833;SDS011;63361;52.384;20.930;2023-04-10T14:05:43;6.63;;;2.43;;
74833;SDS011;63361;52.384;20.930;2023-04-10T14:08:09;6.88;;;3.00;;
74833;SDS011;63361;52.384;20.930;2023-04-10T14:10:38;4.43;;;2.38;;
74833;SDS011;63361;52.384;20.930;2023-04-10T14:13:04;5.77;;;2.97;;
74833;SDS011;63361;52.384;20.930;2023-04-10T14:15:30;6.47;;;2.45;;
74833;SDS011;63361;52.384;20.930;2023-04-10T14:17:55;6.73;;;3.00;;
74833;SDS011;63361;52.384;20.930;2023-04-10T14:20:21;5.87;;;3.10;;
74833;SDS011;63361;52.384;20.930;2023-04-10T14:22:46;6.90;;;2.70;;
74833;SDS011;63361;52.384;20.930;2023-04-10T14:25:12;6.27;;;2.80;;
74833;SDS011;63361;52.384;20.930;2023-04-10T14:27:39;4.93;;;2.63;;
74833;SDS011;63361;52.384;20.930;2023-04-10T14:30:08;4.50;;;2.17;;
74833;SDS011;63361;52.384;20.930;2023-04-10T14:32:34;5.63;;;2.42;;
74833;SDS011;63361;52.384;20.930;2023-04-10T14:35:00;5.30;;;2.28;;
74833;SDS011;63361;52.384;20.930;2023-04-10T14:37:25;8.50;;;2.87;;
74833;SDS011;63361;52.384;20.930;2023-04-10T14:39:50;4.53;;;2.03;;
74833;SDS011;63361;52.384;20.930;2023-04-10T14:42:16;6.43;;;2.13;;
74833;SDS011;63361;52.384;20.930;2023-04-10T14:44:41;6.13;;;2.77;;
74833;SDS011;63361;52.384;20.930;2023-04-10T14:47:06;5.13;;;2.43;;
74833;SDS011;63361;52.384;20.930;2023-04-10T14:49:32;8.75;;;2.88;;